Details From KIBM - KIMBALL MUNI ROBERT E ARRAJ FLD
To KHSI - HASTINGS MUNI
Flight Number -
Tags generated
Created
Modified
Stats Distance 242 nm / 449 km
Max Altitude 23,700 ft / 7,224 m
Waypoints 5
Social Downloads 0
Likes 0
Share VATSIM

Download

Looking for another format? Having issues loading an existing format? Contact us
Advertisement - Login to hide

Notes

Basic altitude profile: - Ascent Rate: 2500ft/min - Ascent Speed: 250kts - Cruise Altitude: 35000ft - Cruise Speed: 420kts - Descent Rate: 1500ft/min - Descent Speed: 250kts Options: - Use NATs: yes - Use PACOTS: yes - Use low airways: yes - Use high airways: yes

Route

KIBM SOKHA V6 YESUS KHSI

ID Type Via Altitude Latitude Longitude Leg Dist Tot Dist Heading (true) Name
O KIBM APT - 0 ft / 0 m 41.18806˚ -103.67731˚ - 0 nm - KIMBALL MUNI ROBERT E ARRAJ FLD
SOKHA FIX - 23,700 ft / 7,224 m 41.08387˚ -102.15150˚ 69 nm 69 nm 95° / 96° -
LBF VOR V6 (AWY-LO) 17,000 ft / 5,182 m 41.04869˚ -100.74711˚ 63 nm 132 nm 91° / 92° NORTH PLATTE VORTAC
YESUS FIX V6 (AWY-LO) 17,000 ft / 5,182 m 41.03887˚ -100.21051˚ 24 nm 157 nm 91° / 92° -
O KHSI APT - 0 ft / 0 m 40.60493˚ -98.42789˚ 85 nm 242 nm 107° / 108° HASTINGS MUNI

Altitude Profile

Advertisement - Login to hide

Weather


0- 5 10 15 20 25 30 35+ Temperature / ° C

Clouds and Precipitation
Forecast for 2017-12-14 18:00 UTC. Updated 2 hours ago

Ground ~20,000 ft ~40,000 ft Winds

KIBM

Details ICAO KIBM
Name KIMBALL MUNI ROBERT E ARRAJ FLD
Region United States
Timezone America/Denver (UTC-7.0)
Stats Elevation 4,926 ft / 1,501 m (AMSL)
Location 41.188059° -103.677311°
Runways 1
Magnetic Variation 7.616° E

METAR

KIBM 141455Z AUTO 31010KT 10SM SCT055 OVC085 01/M04 A3015 RMK AO2 T00081045

Decode

TAF

Not found

Departure Runways

ID Width Length Bearing (true) Bearing (mag) Surface Threshold Offset Overrun Length
10 75 ft / 23 m 6,194 ft / 1,888 m 104.79° 97.17° Concrete 0 ft / 0 m 0 ft / 0 m
28 75 ft / 23 m 6,194 ft / 1,888 m 284.81° 277.19° Concrete 0 ft / 0 m 0 ft / 0 m

KHSI

Details ICAO KHSI
Name HASTINGS MUNI
Region United States
Timezone America/Chicago (UTC-6.0)
Stats Elevation 1,961 ft / 598 m (AMSL)
Location 40.604928° -98.427887°
Runways 2
Magnetic Variation 4.317° E

METAR

KHSI 141453Z AUTO 28009KT 10SM SCT043 OVC055 01/M04 A3008 RMK AO2 SLP203 T00111039 51008

Decode

TAF

Not found

Destination Runways

ID Width Length Bearing (true) Bearing (mag) Surface Threshold Offset Overrun Length
04 75 ft / 23 m 4,502 ft / 1,372 m 46.70° 42.38° Concrete 0 ft / 0 m 0 ft / 0 m
14 98 ft / 30 m 6,456 ft / 1,968 m 150.40° 146.08° Concrete 0 ft / 0 m 0 ft / 0 m
22 75 ft / 23 m 4,502 ft / 1,372 m 226.70° 222.38° Concrete 0 ft / 0 m 0 ft / 0 m
32 98 ft / 30 m 6,456 ft / 1,968 m 330.40° 326.08° Concrete 951 ft / 290 m 0 ft / 0 m

Popular Alternatives